Centerdale, Iowa
Current Conditions -  °F | °C
As of 11:52 AM on Friday 21 Nov 2014 (Local Time) from KIOW Reporting Station
Clear Clear  
Wind Chill: 18°   Ceiling: Unl
Heat Index: 29°   Visibility: 10mi
Dew Point: 13°   Wind: 15mph
Humidity: 51%   Direction: 150°SSE
Pressure: 30.34"   Gusts: NA
Location:  41.5542°N, 91.2913°W
Report Text: KIOW 211752Z AUTO 15013KT 10SM CLR M02/M11 A3034 RMK AO2 SLP286 T10171106 11017 21139 58021
Loading
Personal Weather Stations






























Interactive Weather Map New forecast layout! Learn more

10-Day Weather Forecast

Advertisements
Track Severe Weather on mobile